Laytonville, CA (95454)

6:30 AM PDT on May 06, 2015 (GMT -0700)
Laytonville | | Change Station
CLOSE
Current Station
Personal Weather Station
Location: Laytonville, CA
Elevation: 1650 ft
Nearby Weather Stations
Active Advisory: Frost Advisory

Elev 1650 ft 39.67 °N, 123.48 °W | Updated 0 second ago

Partly Cloudy
Partly Cloudy
39.1 °F
Feels Like 39 °F
N
0.0
Wind Variable Wind from WSW
Gusts 0.0 mph

Today
High -- | Low -- °F
--% Chance of Precip.
Yesterday
High -- | Low -- °F
Precip. -- in
6:08 AM 8:13 PM
Waning Gibbous, 94% visible
Pressure 29.89 in
Visibility 10.0 miles
Clouds Clear
Windchill 39 °F
Dew Point 35 °F
Humidity 85%
Rainfall 0.00 in
Snow Depth Not available.
UV 0 out of 12
Pollen 6.90 out of 12
Air Quality Not available.
Flu Activity Sporadic
METAR KUKI 061256Z AUTO 34003KT 10SM CLR 08/03 A2990 RMK AO2 SLP120 T00830033

More Conditions Fewer Conditions

Pressure 29.89 in
Visibility 10.0 miles
Clouds Clear
Windchill 39 °F
Dew Point 35 °F
Humidity 85%
Rainfall 0.00 in
Snow Depth Not available.
UV 0 out of 12
Pollen 6.90 out of 12
Air Quality Not available.
Flu Activity Sporadic
METAR KUKI 061256Z AUTO 34003KT 10SM CLR 08/03 A2990 RMK AO2 SLP120 T00830033

More Conditions Fewer Conditions

10-Day Weather Forecast

Almanac

Astronomy

May. 06, 2015 Rise Set
Actual Time
Civil Twilight
Nautical Twilight
Astronomical Twilight
Moon
Length of Visible Light
Length of Day
Tomorrow will be .
, % of the Moon is Illuminated

Today's Extremes

State Highs State Lows

Community

WunderPhotos

Upload Photos

1,818,897 photos uploaded!

WunderBlogs® & News

Nearby

Air Quality

  Air Quality AQ Index Pollutant
Not available.

Snow Depth

Station Depth Elevation

Earthquake Activity

City Distance Mag. Time & Date
Minimum magnitude displayed is 2.5.

Coastal Water Temperatures

Place Temperature

Stations

Nearby Weather Stations

Station Location Temp. Windchill Dew Point Humidity Wind Precip. Elev Updated Type
                   
Frost Advisory
Statement as of 3:48 AM PDT on May 06, 2015

... Frost advisory remains in effect until 8 am PDT this morning...

* low temperatures... mid 30s. A few locations may fall into the
lower 30s.

* Issued for the eastern and southern valleys of Trinity County
and the northern and central valleys of Mendocino County. This
includes Hayfork... Weaverville... Ruth... Covelo... Potter Valley
and Willits.

* For a detailed view of the hazard area... visit
http://www.Wrh.NOAA.Gov/map

Precautionary/preparedness actions...

A frost advisory means that frost is possible. Sensitive outdoor
plants may be killed if left uncovered.